sensor_id;sensor_type;location;lat;lon;timestamp;pressure;altitude;pressure_sealevel;temperature;humidity
4449;BME280;2237;51.870;6.160;2023-03-26T20:29:09;100934.75;;;8.38;69.33
4449;BME280;2237;51.870;6.160;2023-03-26T20:31:37;100936.72;;;8.10;73.74
4449;BME280;2237;51.870;6.160;2023-03-26T20:34:16;100943.84;;;7.94;77.35
4449;BME280;2237;51.870;6.160;2023-03-26T20:36:43;100940.50;;;7.80;80.21
4449;BME280;2237;51.870;6.160;2023-03-26T20:39:11;100944.91;;;7.71;82.16
4449;BME280;2237;51.870;6.160;2023-03-26T20:41:46;100948.38;;;7.67;84.84
4449;BME280;2237;51.870;6.160;2023-03-26T20:44:16;100953.63;;;7.61;85.88
4449;BME280;2237;51.870;6.160;2023-03-26T20:46:44;100958.00;;;7.53;86.65
4449;BME280;2237;51.870;6.160;2023-03-26T20:49:11;100961.50;;;7.50;88.38
4449;BME280;2237;51.870;6.160;2023-03-26T20:51:38;100970.16;;;7.46;88.53
4449;BME280;2237;51.870;6.160;2023-03-26T20:54:18;100971.94;;;7.38;89.32
4449;BME280;2237;51.870;6.160;2023-03-26T20:56:45;100976.28;;;7.34;89.05
4449;BME280;2237;51.870;6.160;2023-03-26T20:59:20;100978.06;;;7.26;91.10
4449;BME280;2237;51.870;6.160;2023-03-26T21:01:48;100983.22;;;7.29;91.70
4449;BME280;2237;51.870;6.160;2023-03-26T21:04:16;100988.41;;;7.26;91.45
4449;BME280;2237;51.870;6.160;2023-03-26T21:06:42;100989.34;;;7.18;91.06
4449;BME280;2237;51.870;6.160;2023-03-26T21:09:14;101004.91;;;7.12;91.80
4449;BME280;2237;51.870;6.160;2023-03-26T21:14:21;100999.78;;;7.03;93.43
4449;BME280;2237;51.870;6.160;2023-03-26T21:16:48;101010.13;;;7.10;93.69
4449;BME280;2237;51.870;6.160;2023-03-26T21:19:15;101014.41;;;7.08;93.06
4449;BME280;2237;51.870;6.160;2023-03-26T21:25:02;101022.13;;;7.20;94.29
4449;BME280;2237;51.870;6.160;2023-03-26T21:30:09;101040.25;;;7.23;94.20
4449;BME280;2237;51.870;6.160;2023-03-26T21:32:36;101039.38;;;7.23;93.44
4449;BME280;2237;51.870;6.160;2023-03-26T21:35:03;101048.94;;;7.16;93.69
4449;BME280;2237;51.870;6.160;2023-03-26T21:37:30;101040.25;;;7.20;94.50
4449;BME280;2237;51.870;6.160;2023-03-26T21:39:56;101052.34;;;7.24;94.16
4449;BME280;2237;51.870;6.160;2023-03-26T21:42:25;101046.31;;;7.21;93.89
4449;BME280;2237;51.870;6.160;2023-03-26T21:44:54;101055.81;;;7.17;94.41
4449;BME280;2237;51.870;6.160;2023-03-26T21:47:21;101057.53;;;7.18;94.78
4449;BME280;2237;51.870;6.160;2023-03-26T21:49:47;101070.56;;;7.08;95.56
4449;BME280;2237;51.870;6.160;2023-03-26T21:52:14;101073.13;;;7.09;96.73
4449;BME280;2237;51.870;6.160;2023-03-26T21:54:41;101074.88;;;7.07;96.57
4449;BME280;2237;51.870;6.160;2023-03-26T21:57:52;101083.50;;;7.06;97.33
4449;BME280;2237;51.870;6.160;2023-03-26T22:00:23;101087.00;;;6.92;96.94
4449;BME280;2237;51.870;6.160;2023-03-26T22:03:11;101090.47;;;6.89;98.08
4449;BME280;2237;51.870;6.160;2023-03-26T22:06:01;101092.22;;;6.84;98.72
4449;BME280;2237;51.870;6.160;2023-03-26T22:10:57;101089.63;;;6.70;100.00
4449;BME280;2237;51.870;6.160;2023-03-26T22:13:24;101092.25;;;6.67;100.00
4449;BME280;2237;51.870;6.160;2023-03-26T22:15:50;101095.69;;;6.62;100.00
4449;BME280;2237;51.870;6.160;2023-03-26T22:18:16;101100.88;;;6.62;100.00
4449;BME280;2237;51.870;6.160;2023-03-26T22:20:47;101110.38;;;6.54;100.00
4449;BME280;2237;51.870;6.160;2023-03-26T22:23:14;101125.91;;;6.51;100.00
4449;BME280;2237;51.870;6.160;2023-03-26T22:25:41;101126.78;;;6.47;100.00
4449;BME280;2237;51.870;6.160;2023-03-26T22:28:08;101131.97;;;6.44;100.00
4449;BME280;2237;51.870;6.160;2023-03-26T22:30:35;101138.84;;;6.40;100.00
4449;BME280;2237;51.870;6.160;2023-03-26T22:33:02;101145.75;;;6.34;100.00
4449;BME280;2237;51.870;6.160;2023-03-26T22:35:29;101139.69;;;6.30;100.00
4449;BME280;2237;51.870;6.160;2023-03-26T22:37:56;101142.31;;;6.22;100.00
4449;BME280;2237;51.870;6.160;2023-03-26T22:40:26;101144.88;;;6.13;100.00
4449;BME280;2237;51.870;6.160;2023-03-26T22:42:52;101143.16;;;6.18;100.00
4449;BME280;2237;51.870;6.160;2023-03-26T22:45:19;101156.09;;;6.06;100.00
4449;BME280;2237;51.870;6.160;2023-03-26T22:47:45;101164.69;;;6.04;100.00
4449;BME280;2237;51.870;6.160;2023-03-26T22:50:11;101165.56;;;6.03;100.00
4449;BME280;2237;51.870;6.160;2023-03-26T22:52:38;101162.97;;;6.01;100.00
4449;BME280;2237;51.870;6.160;2023-03-26T22:55:07;101183.66;;;6.07;100.00
4449;BME280;2237;51.870;6.160;2023-03-26T22:57:33;101186.25;;;6.10;100.00
4449;BME280;2237;51.870;6.160;2023-03-26T23:00:00;101188.81;;;6.07;100.00
4449;BME280;2237;51.870;6.160;2023-03-26T23:02:39;101190.53;;;6.02;100.00
4449;BME280;2237;51.870;6.160;2023-03-26T23:05:06;101199.16;;;6.01;100.00
4449;BME280;2237;51.870;6.160;2023-03-26T23:07:32;101211.22;;;5.99;100.00
4449;BME280;2237;51.870;6.160;2023-03-26T23:09:59;101220.69;;;5.94;100.00
4449;BME280;2237;51.870;6.160;2023-03-26T23:12:25;101217.22;;;5.91;100.00
4449;BME280;2237;51.870;6.160;2023-03-26T23:14:51;101218.88;;;5.80;100.00
4449;BME280;2237;51.870;6.160;2023-03-26T23:17:18;101224.03;;;5.77;100.00
4449;BME280;2237;51.870;6.160;2023-03-26T23:19:44;101219.72;;;5.74;100.00
4449;BME280;2237;51.870;6.160;2023-03-26T23:22:11;101225.75;;;5.72;100.00
4449;BME280;2237;51.870;6.160;2023-03-26T23:24:38;101225.72;;;5.64;100.00
4449;BME280;2237;51.870;6.160;2023-03-26T23:27:04;101222.25;;;5.59;100.00
4449;BME280;2237;51.870;6.160;2023-03-26T23:29:32;101228.22;;;5.47;100.00
4449;BME280;2237;51.870;6.160;2023-03-26T23:31:58;101232.50;;;5.42;100.00
4449;BME280;2237;51.870;6.160;2023-03-26T23:34:25;101231.59;;;5.37;100.00
4449;BME280;2237;51.870;6.160;2023-03-26T23:36:51;101237.63;;;5.38;100.00
4449;BME280;2237;51.870;6.160;2023-03-26T23:39:18;101245.38;;;5.33;100.00
4449;BME280;2237;51.870;6.160;2023-03-26T23:41:45;101250.50;;;5.32;100.00
4449;BME280;2237;51.870;6.160;2023-03-26T23:44:11;101255.69;;;5.32;100.00
4449;BME280;2237;51.870;6.160;2023-03-26T23:46:39;101265.97;;;5.29;100.00
4449;BME280;2237;51.870;6.160;2023-03-26T23:49:09;101262.53;;;5.22;100.00
4449;BME280;2237;51.870;6.160;2023-03-26T23:51:37;101267.63;;;5.18;100.00
4449;BME280;2237;51.870;6.160;2023-03-26T23:54:03;101266.78;;;5.16;100.00
4449;BME280;2237;51.870;6.160;2023-03-26T23:56:30;101276.25;;;5.17;100.00
4449;BME280;2237;51.870;6.160;2023-03-26T23:58:57;101274.53;;;5.16;100.00
